Time;durP1;ratioP1;P1;durP2;ratioP2;P2;SDS_P1;SDS_P2;PMS_P1;PMS_P2;Temp;Humidity;BMP_temperature;BMP_pressure;BME280_temperature;BME280_humidity;BME280_pressure;Samples;Min_cycle;Max_cycle;Signal;HPM_P1;HPM_P2
2022/03/24 00:01:02;;;;;;;;;;;;;;;4.40;46.62;100997.19;6274497;22;19915;-88
2022/03/24 00:03:28;;;;;;;;;;;;;;;4.38;46.44;100994.00;6273955;22;19919;-88
2022/03/24 00:05:53;;;;;;;;;;;;;;;4.36;45.49;100988.09;6275132;22;19998;-80
2022/03/24 00:08:19;;;;;;;;;;;;;;;4.44;44.58;100991.72;6247566;22;19999;-89
2022/03/24 00:10:44;;;;;;;;;;;;;;;4.41;44.49;100990.50;6275050;22;19923;-89
2022/03/24 00:13:10;;;;;;;;;;;;;;;4.26;46.35;100977.75;6274610;22;19915;-89
2022/03/24 00:15:35;;;;;;;;;;;;;;;4.18;47.33;100973.31;6274526;22;19915;-88
2022/03/24 00:18:01;;;;;;;;;;;;;;;4.14;47.11;100981.50;6247018;22;19969;-89
2022/03/24 00:20:26;;;;;;;;;;;;;;;4.18;47.62;100976.06;6273633;22;19938;-89
2022/03/24 00:22:52;;;;;;;;;;;;;;;4.12;47.81;100970.13;6274148;22;19915;-89
2022/03/24 00:25:17;;;;;;;;;;;;;;;3.95;47.75;100969.84;6197250;22;19916;-88
2022/03/24 00:27:43;;;;;;;;;;;;;;;3.78;48.89;100970.38;6273911;22;19961;-88
2022/03/24 00:30:09;;;;;;;;;;;;;;;3.79;48.66;100972.75;6247274;22;19985;-88
2022/03/24 00:32:35;;;;;;;;;;;;;;;3.76;48.82;100971.53;6220315;22;19914;-89
2022/03/24 00:35:01;;;;;;;;;;;;;;;3.83;47.61;100970.06;6221909;22;19923;-89
2022/03/24 00:37:27;;;;;;;;;;;;;;;3.80;46.81;100954.34;6246635;22;19919;-89
2022/03/24 00:39:52;;;;;;;;;;;;;;;3.86;45.49;100955.59;6246264;22;20286;-87
2022/03/24 00:42:19;;;;;;;;;;;;;;;3.88;45.46;100956.81;6274532;22;20237;-88
2022/03/24 00:44:45;;;;;;;;;;;;;;;3.96;44.96;100952.22;6275395;22;19993;-88
2022/03/24 00:47:11;;;;;;;;;;;;;;;3.85;44.46;100946.56;6246701;22;19965;-88
2022/03/24 00:49:38;;;;;;;;;;;;;;;3.83;44.32;100942.63;6245679;22;19938;-88
2022/03/24 00:52:05;;;;;;;;;;;;;;;3.82;44.06;100941.81;6273895;22;19929;-89
2022/03/24 00:54:30;;;;;;;;;;;;;;;3.81;45.24;100936.69;6247006;22;20356;-88
2022/03/24 00:56:56;;;;;;;;;;;;;;;3.87;44.79;100927.00;6246592;22;19919;-89
2022/03/24 00:59:22;;;;;;;;;;;;;;;3.78;44.54;100929.19;6273767;22;20357;-88
2022/03/24 01:01:48;;;;;;;;;;;;;;;3.69;44.99;100927.50;6221512;22;19957;-88
2022/03/24 01:04:14;;;;;;;;;;;;;;;3.59;45.33;100917.19;6246344;22;19915;-88
2022/03/24 01:06:40;;;;;;;;;;;;;;;3.48;46.08;100921.69;6246300;22;19994;-87
2022/03/24 01:09:06;;;;;;;;;;;;;;;3.36;48.05;100924.63;6221657;22;19969;-88
2022/03/24 01:11:31;;;;;;;;;;;;;;;3.31;49.22;100922.22;6274183;22;19919;-88
2022/03/24 01:13:57;;;;;;;;;;;;;;;3.18;49.66;100918.84;6274680;22;19919;-88
2022/03/24 01:16:25;;;;;;;;;;;;;;;3.15;49.46;100913.31;6273094;22;20242;-87
2022/03/24 01:18:50;;;;;;;;;;;;;;;3.04;50.44;100917.81;6247320;22;20360;-87
2022/03/24 01:21:16;;;;;;;;;;;;;;;3.10;51.04;100919.09;6273199;22;19997;-87
2022/03/24 01:23:43;;;;;;;;;;;;;;;2.96;50.37;100899.66;6273918;22;19993;-88
2022/03/24 01:26:09;;;;;;;;;;;;;;;3.05;50.55;100903.75;6273753;22;19939;-87
2022/03/24 01:28:35;;;;;;;;;;;;;;;3.08;49.66;100907.69;6273399;22;19916;-87
2022/03/24 01:31:00;;;;;;;;;;;;;;;3.07;50.35;100901.44;6273774;22;19998;-87
2022/03/24 01:33:26;;;;;;;;;;;;;;;3.02;49.76;100900.94;6273394;22;19919;-86
2022/03/24 01:35:52;;;;;;;;;;;;;;;3.00;49.81;100905.97;6221668;22;20442;-87
2022/03/24 01:38:17;;;;;;;;;;;;;;;2.92;50.22;100907.81;6246261;22;20246;-87
2022/03/24 01:40:46;;;;;;;;;;;;;;;2.91;49.80;100908.19;6273734;22;19938;-86
2022/03/24 01:43:12;;;;;;;;;;;;;;;2.92;49.91;100905.06;6220992;22;19965;-79
2022/03/24 01:45:38;;;;;;;;;;;;;;;2.91;50.15;100903.50;6246601;22;20344;-79
2022/03/24 01:48:06;;;;;;;;;;;;;;;2.88;49.68;100900.69;6246943;22;19950;-80
2022/03/24 01:50:33;;;;;;;;;;;;;;;2.79;49.64;100896.22;6245682;22;20128;-80
2022/03/24 01:52:59;;;;;;;;;;;;;;;2.81;50.22;100896.66;6273341;22;19923;-80
2022/03/24 01:55:24;;;;;;;;;;;;;;;2.68;50.58;100895.25;6246067;22;19919;-80
2022/03/24 01:57:50;;;;;;;;;;;;;;;2.79;50.81;100885.25;6221068;22;19965;-80
2022/03/24 02:00:16;;;;;;;;;;;;;;;2.87;50.43;100890.91;6219965;22;19915;-80
2022/03/24 02:02:42;;;;;;;;;;;;;;;2.97;50.04;100885.59;6241427;22;19923;-83
2022/03/24 02:05:08;;;;;;;;;;;;;;;3.05;47.77;100887.28;6248448;22;19915;-84
2022/03/24 02:07:35;;;;;;;;;;;;;;;3.09;46.76;100890.88;6250488;22;19973;-84
2022/03/24 02:10:01;;;;;;;;;;;;;;;3.09;46.95;100890.88;6249530;22;19919;-84
2022/03/24 02:12:26;;;;;;;;;;;;;;;3.02;46.85;100893.50;6224324;22;19942;-84
2022/03/24 02:14:59;;;;;;;;;;;;;;;3.03;46.93;100877.88;6224844;22;20332;-84
2022/03/24 02:17:29;;;;;;;;;;;;;;;2.98;47.32;100880.91;6249530;22;19919;-84
2022/03/24 02:19:57;;;;;;;;;;;;;;;2.83;48.40;100886.13;6276742;22;19930;-84
2022/03/24 02:22:22;;;;;;;;;;;;;;;2.71;49.08;100888.25;6248822;22;19922;-84
2022/03/24 02:24:48;;;;;;;;;;;;;;;2.69;49.29;100880.41;6276093;22;19922;-84
2022/03/24 02:27:14;;;;;;;;;;;;;;;2.62;50.99;100877.53;6275763;22;19923;-84
2022/03/24 02:29:40;;;;;;;;;;;;;;;2.65;51.27;100879.53;6275987;22;19969;-84
2022/03/24 02:32:11;;;;;;;;;;;;;;;2.62;50.67;100876.75;6248649;22;19915;-84
2022/03/24 02:34:48;;;;;;;;;;;;;;;2.61;51.34;100870.47;6224422;22;19915;-84
2022/03/24 02:37:24;;;;;;;;;;;;;;;2.62;50.82;100874.78;6248116;22;19981;-84
